Hobbies @ 4-ch

Num Title Posts Last post File size
1: art 1 2024-03-03 10:03 6 kb
2: [Food] General Recipe Thread [Cooking] 8 2024-03-03 08:43 19 kb
3: Help me choose a new hobby 102 2024-02-28 03:37 76 kb
4: I have 3 months to live. Come say goodbye 12 2024-02-19 20:54 14 kb
5: Shortwave Radio/SWL/DXing 5 2024-02-14 22:14 12 kb
6: My hobby is stalking 22 2024-02-14 22:31 19 kb
7: Chemistry 9 2024-02-14 06:30 12 kb
8: THE FUTURE OF TEXTBOARDS, IN http://fart.ga/ !! 3 2024-02-11 00:16 7 kb
9: Firearm Thread 5 2024-02-10 23:39 8 kb
10: POV sex/ cyber sex 10 2024-02-10 23:34 10 kb
11: What do you think this dance movie ? 3 2024-02-10 23:33 7 kb
12: Smoking. 5 2024-02-10 23:30 8 kb
13: How do I learn to cook? 11 2024-02-10 23:29 16 kb
14: Otaku? 19 2024-01-23 16:35 18 kb
15: Mutual teach 2 2023-08-13 12:32 6 kb
16: [criminal][fun] vial brew 2 2023-06-17 14:53 10 kb
17: ITT: What food made you sick/stomach pain, but it was worth it? 16 2023-04-05 11:30 14 kb
18: Any good birdwatching websites? 10 2023-06-26 18:53 11 kb
19: Homebrew / DIY alcohol thread 8 2023-02-21 12:41 12 kb
20: Please help! I don't want to be an otaku anymore! 159 2023-02-16 15:16 117 kb
21: Go/Baduk/Weiqi 12 2023-02-16 02:01 12 kb
22: HAM Radio questions 6 2023-03-10 20:08 9 kb
23: 8 Steps To Becoming A Weaboo 19 2023-01-30 07:23 19 kb
24: Board games 33 2022-11-21 15:52 29 kb
25: Easy, Simple Yet Useful Recipees [n00bs] 44 2022-11-14 09:57 49 kb
26: http://101.176.95.67 (permasaged) 6 2022-09-21 11:37 9 kb
27: Guitar and Bass questions 19 2022-03-18 12:38 20 kb
28: Supercapacitors as a rapid-charge battery replacement for low-voltage, low-current device 1 2021-11-02 06:09 7 kb
29: I am Japanese.Do you have some question? 21 2021-10-01 00:08 14 kb
30: Smoking 46 2021-09-29 02:50 34 kb
31: Let's share funny something!! 20 2021-09-27 23:18 22 kb
32: feedback please 5 2021-06-22 22:38 8 kb
33: Check out this mmrts 6 2021-06-17 23:39 7 kb
34: Breakin 8 2021-05-31 04:35 9 kb
35: Hunting the Undead 53 2021-05-07 05:39 37 kb
36: profit from games and anime and comic 4 2023-04-13 09:02 7 kb
37: Weeaboo... they just want to be Japanese, or any Asian is okay? 140 2021-04-29 05:03 119 kb
38: [Nighttime] Amateur Astronomy/Stargazing [Comfy] 15 2021-03-28 09:00 24 kb
39: [Bicycle] Hey, lets go ride bikes! 31 2021-03-26 00:28 27 kb
40: I'd like to learn guitar. ._. 14 2021-02-10 18:58 18 kb
41: fascinated 2 2021-03-05 21:21 6 kb
42: wowhello 3 2021-01-28 15:08 6 kb
43: urban exploretion & occult 7 2020-10-26 08:14 10 kb
44: Looking for a special hobby. D: 39 2019-12-27 16:31 30 kb
45: Tabletop RPG & Homebrew Worldbuilding 14 2019-12-24 20:46 18 kb
46: Anyone else keep beetles as a pet? 5 2018-07-27 16:59 7 kb
47: I think of all the dead boards on this site... 2 2018-05-15 14:09 6 kb
48: 折り紙 ORIGAMI 7 2018-04-29 15:16 8 kb
49: evolving otaku 19 2018-05-04 15:12 17 kb
50: 【GWG】MYOPIA GIRL LOVE【MOE】 18 2017-05-09 15:49 16 kb
51: DIY Power Ranger Costumes 4 2017-03-06 20:26 7 kb
52: test 2 2016-11-09 21:29 5 kb
53: weed 37 2016-11-09 11:20 34 kb
54: hallo 12 2015-09-12 23:17 11 kb
55: On being called an otaku 96 2015-09-02 10:43 67 kb
56: Legend about 1000 cranes 18 2014-07-31 20:12 18 kb